createdAt,value
2019-02-21T00:00:59.708Z,7.00
2019-02-21T00:03:33.289Z,7.00
2019-02-21T00:06:05.127Z,7.00
2019-02-21T00:08:38.050Z,6.90
2019-02-21T00:11:11.151Z,7.00
2019-02-21T00:13:44.168Z,7.00
2019-02-21T00:16:17.230Z,7.00
2019-02-21T00:18:49.408Z,7.10
2019-02-21T00:21:22.908Z,7.10
2019-02-21T00:23:55.467Z,7.20
2019-02-21T00:26:27.811Z,7.20
2019-02-21T00:29:00.950Z,7.20
2019-02-21T00:31:34.108Z,7.20
2019-02-21T00:34:06.547Z,7.20
2019-02-21T00:36:39.149Z,7.20
2019-02-21T00:39:11.976Z,7.20
2019-02-21T00:41:44.728Z,7.20
2019-02-21T00:44:18.409Z,7.20
2019-02-21T00:46:51.711Z,7.20
2019-02-21T00:49:23.311Z,7.10
2019-02-21T00:51:56.410Z,7.10
2019-02-21T00:54:29.453Z,7.10
2019-02-21T00:57:02.828Z,7.20
2019-02-21T00:59:35.617Z,7.20
2019-02-21T01:02:08.030Z,7.30
2019-02-21T01:04:41.212Z,7.30
2019-02-21T01:07:14.371Z,7.40
2019-02-21T01:09:45.189Z,7.50
2019-02-21T01:12:18.469Z,7.50
2019-02-21T01:14:51.350Z,7.40
2019-02-21T01:17:23.494Z,7.40
2019-02-21T01:19:57.009Z,7.30
2019-02-21T01:22:29.372Z,7.20
2019-02-21T01:25:01.729Z,7.20
2019-02-21T01:27:33.488Z,7.10
2019-02-21T01:30:06.808Z,7.10
2019-02-21T01:32:38.688Z,7.00
2019-02-21T01:35:11.130Z,7.00
2019-02-21T01:37:44.290Z,6.90
2019-02-21T01:40:17.389Z,6.80
2019-02-21T01:42:49.569Z,6.80
2019-02-21T01:45:22.389Z,6.80
2019-02-21T01:47:55.412Z,6.80
2019-02-21T01:50:28.711Z,6.80
2019-02-21T01:53:02.589Z,6.90
2019-02-21T01:55:34.468Z,6.80
2019-02-21T01:58:07.007Z,6.80
2019-02-21T02:00:40.569Z,6.70
2019-02-21T02:03:12.609Z,6.70
2019-02-21T02:05:45.589Z,6.80
2019-02-21T02:08:18.571Z,6.80
2019-02-21T02:10:52.079Z,6.70
2019-02-21T02:13:25.509Z,6.70
2019-02-21T02:15:58.089Z,6.70
2019-02-21T02:18:30.708Z,6.60
2019-02-21T02:21:03.948Z,6.60
2019-02-21T02:23:37.309Z,6.50
2019-02-21T02:26:10.687Z,6.50
2019-02-21T02:28:42.951Z,6.50
2019-02-21T02:31:22.930Z,6.50
2019-02-21T02:33:49.209Z,6.40
2019-02-21T02:36:22.564Z,6.40
2019-02-21T02:38:55.631Z,6.40
2019-02-21T02:41:27.312Z,6.40
2019-02-21T02:43:59.768Z,6.40
2019-02-21T02:46:33.150Z,6.30
2019-02-21T02:49:05.007Z,6.20
2019-02-21T02:51:37.609Z,6.20
2019-02-21T02:54:10.313Z,6.30
2019-02-21T02:56:42.633Z,6.30
2019-02-21T02:59:14.990Z,6.40
2019-02-21T03:01:48.050Z,6.40
2019-02-21T03:04:20.300Z,6.50
2019-02-21T03:06:53.008Z,6.50
2019-02-21T03:09:25.768Z,6.50
2019-02-21T03:11:57.810Z,6.50
2019-02-21T03:14:30.770Z,6.60
2019-02-21T03:17:04.230Z,6.70
2019-02-21T03:19:37.889Z,6.80
2019-02-21T03:22:12.450Z,6.90
2019-02-21T03:24:45.069Z,7.10
2019-02-21T03:27:17.932Z,7.10
2019-02-21T03:29:50.751Z,7.10
2019-02-21T03:32:23.529Z,7.10
2019-02-21T03:34:56.212Z,7.00
2019-02-21T03:37:29.410Z,7.10
2019-02-21T03:40:02.073Z,7.10
2019-02-21T03:42:33.889Z,7.10
2019-02-21T03:45:07.708Z,7.10
2019-02-21T03:47:40.531Z,7.20
2019-02-21T03:50:13.437Z,7.20
2019-02-21T03:52:46.748Z,7.30
2019-02-21T03:55:19.580Z,7.20
2019-02-21T03:57:52.291Z,7.20
2019-02-21T04:00:25.020Z,7.20
2019-02-21T04:02:57.849Z,7.20
2019-02-21T04:05:28.829Z,7.20
2019-02-21T04:08:02.028Z,7.20
2019-02-21T04:10:35.069Z,7.20
2019-02-21T04:13:07.052Z,7.10
2019-02-21T04:15:39.768Z,7.10
2019-02-21T04:18:13.492Z,6.90
2019-02-21T04:20:47.029Z,6.70
2019-02-21T04:23:20.770Z,6.40
2019-02-21T04:25:53.128Z,6.20
2019-02-21T04:28:25.730Z,6.10
2019-02-21T04:30:58.968Z,6.10
2019-02-21T04:33:34.313Z,6.10
2019-02-21T04:36:06.748Z,6.20
2019-02-21T04:38:40.270Z,6.20
2019-02-21T04:41:13.148Z,6.20
2019-02-21T04:43:45.470Z,6.20
2019-02-21T04:46:18.611Z,6.30
2019-02-21T04:48:50.388Z,6.30
2019-02-21T04:51:22.851Z,6.30
2019-02-21T04:53:55.909Z,6.30
2019-02-21T04:56:28.389Z,6.30
2019-02-21T04:59:01.880Z,6.30
2019-02-21T05:01:33.631Z,6.40
2019-02-21T05:04:06.628Z,6.40
2019-02-21T05:06:39.709Z,6.30
2019-02-21T05:09:11.670Z,6.30
2019-02-21T05:11:44.927Z,6.20
2019-02-21T05:14:17.709Z,6.10
2019-02-21T05:16:51.589Z,6.00
2019-02-21T05:19:24.388Z,5.90
2019-02-21T05:21:56.587Z,5.80
2019-02-21T05:24:29.951Z,5.80
2019-02-21T05:27:13.715Z,5.80
2019-02-21T05:29:46.156Z,5.70
2019-02-21T05:32:41.044Z,5.60
2019-02-21T05:35:17.733Z,5.50
2019-02-21T05:38:02.830Z,5.50
2019-02-21T05:40:44.669Z,5.60
2019-02-21T05:43:37.255Z,5.60
2019-02-21T05:46:27.490Z,5.60
2019-02-21T05:49:18.429Z,5.60
2019-02-21T05:51:56.108Z,5.60
2019-02-21T05:54:49.948Z,5.60
2019-02-21T05:57:41.370Z,5.60
2019-02-21T06:00:32.488Z,5.50
2019-02-21T06:03:38.851Z,5.40
2019-02-21T06:06:44.970Z,5.30
2019-02-21T06:09:40.849Z,5.30
2019-02-21T06:12:33.230Z,5.20
2019-02-21T06:15:21.095Z,5.20
2019-02-21T06:18:12.070Z,5.20
2019-02-21T06:20:57.886Z,5.20
2019-02-21T06:23:55.649Z,5.20
2019-02-21T06:26:36.149Z,5.20
2019-02-21T06:29:16.449Z,5.20
2019-02-21T06:31:49.328Z,5.20
2019-02-21T06:34:22.848Z,5.20
2019-02-21T06:36:55.411Z,5.10
2019-02-21T06:39:27.752Z,5.10
2019-02-21T06:42:01.731Z,5.10
2019-02-21T06:44:34.649Z,5.20
2019-02-21T06:47:08.031Z,5.20
2019-02-21T06:49:40.050Z,5.30
2019-02-21T06:52:12.588Z,5.20
2019-02-21T06:54:44.750Z,5.20
2019-02-21T06:57:17.771Z,5.20
2019-02-21T06:59:50.673Z,5.30
2019-02-21T07:02:23.651Z,5.30
2019-02-21T07:04:56.880Z,5.30
2019-02-21T07:07:29.416Z,5.30
2019-02-21T07:10:02.530Z,5.40
2019-02-21T07:12:35.429Z,5.40
2019-02-21T07:15:07.815Z,5.40
2019-02-21T07:17:48.861Z,5.40
2019-02-21T07:20:15.691Z,5.40
2019-02-21T07:22:47.772Z,5.40
2019-02-21T07:25:54.071Z,5.50
2019-02-21T07:28:27.847Z,5.50
2019-02-21T07:31:00.649Z,5.40
2019-02-21T07:33:33.428Z,5.50
2019-02-21T07:36:05.912Z,5.70
2019-02-21T07:38:38.331Z,5.80
2019-02-21T07:41:11.213Z,6.00
2019-02-21T07:43:45.232Z,6.00
2019-02-21T07:46:17.490Z,6.00
2019-02-21T07:48:49.572Z,6.10
2019-02-21T07:51:22.616Z,6.20
2019-02-21T07:53:55.769Z,6.30
2019-02-21T07:56:28.831Z,6.50
2019-02-21T07:59:01.151Z,6.60
2019-02-21T08:01:33.730Z,6.70
2019-02-21T08:04:06.831Z,6.80
2019-02-21T08:06:38.948Z,7.00
2019-02-21T08:09:12.139Z,7.10
2019-02-21T08:11:45.090Z,7.20
2019-02-21T08:14:17.571Z,7.30
2019-02-21T08:16:50.109Z,7.50
2019-02-21T08:19:22.769Z,7.70
2019-02-21T08:21:54.850Z,7.80
2019-02-21T08:24:27.528Z,7.90
2019-02-21T08:27:00.309Z,8.10
2019-02-21T08:29:33.351Z,8.10
2019-02-21T08:32:06.250Z,8.20
2019-02-21T08:34:48.326Z,8.30
2019-02-21T08:37:19.978Z,8.30
2019-02-21T08:39:52.649Z,8.40
2019-02-21T08:42:25.037Z,8.50
2019-02-21T08:44:57.630Z,8.60
2019-02-21T08:47:29.969Z,8.70
2019-02-21T08:50:03.237Z,8.80
2019-02-21T08:52:35.811Z,9.00
2019-02-21T08:55:08.750Z,9.00
2019-02-21T08:57:41.450Z,9.10
2019-02-21T09:00:14.375Z,9.20
2019-02-21T09:02:46.902Z,9.30
2019-02-21T09:05:19.670Z,9.40
2019-02-21T09:07:51.510Z,9.40
2019-02-21T09:10:23.771Z,9.50
2019-02-21T09:12:55.670Z,9.70
2019-02-21T09:15:28.491Z,9.80
2019-02-21T09:18:01.310Z,9.90
2019-02-21T09:20:33.750Z,10.00
2019-02-21T09:23:06.850Z,10.00
2019-02-21T09:25:39.809Z,10.10
2019-02-21T09:28:15.505Z,10.10
2019-02-21T09:30:47.229Z,10.30
2019-02-21T09:33:21.342Z,10.40
2019-02-21T09:35:56.549Z,10.50
2019-02-21T09:38:28.495Z,10.50
2019-02-21T09:41:00.633Z,10.50
2019-02-21T09:43:33.049Z,10.60
2019-02-21T09:46:06.049Z,10.60
2019-02-21T09:48:38.130Z,10.70
2019-02-21T09:51:10.112Z,10.70
2019-02-21T09:53:42.518Z,10.80
2019-02-21T09:56:14.086Z,10.90
2019-02-21T09:58:46.363Z,11.10
2019-02-21T10:01:19.003Z,11.30
2019-02-21T10:03:51.264Z,11.20
2019-02-21T10:06:23.724Z,11.10
2019-02-21T10:08:56.187Z,11.00
2019-02-21T10:11:27.716Z,10.70
2019-02-21T10:14:00.253Z,10.50
2019-02-21T10:16:32.533Z,10.50
2019-02-21T10:19:05.273Z,10.60
2019-02-21T10:21:38.592Z,10.60
2019-02-21T10:24:11.374Z,10.70
2019-02-21T10:26:44.494Z,10.50
2019-02-21T10:29:18.292Z,10.40
2019-02-21T10:31:51.089Z,10.60
2019-02-21T10:34:23.729Z,10.60
2019-02-21T10:36:56.126Z,10.70
2019-02-21T10:39:29.211Z,10.70
2019-02-21T10:42:01.729Z,10.70
2019-02-21T10:44:33.508Z,10.70
2019-02-21T10:47:05.888Z,10.60
2019-02-21T10:49:38.920Z,10.50
2019-02-21T10:52:10.995Z,10.80
2019-02-21T10:54:43.052Z,10.90
2019-02-21T10:57:14.955Z,11.10
2019-02-21T10:59:47.201Z,11.30
2019-02-21T11:02:20.032Z,11.30
2019-02-21T11:04:55.031Z,11.30
2019-02-21T11:07:26.672Z,11.70
2019-02-21T11:09:59.553Z,11.80
2019-02-21T11:12:32.352Z,11.90
2019-02-21T11:15:04.733Z,12.00
2019-02-21T11:17:37.991Z,12.20
2019-02-21T11:20:12.612Z,12.50
2019-02-21T11:22:45.932Z,12.60
2019-02-21T11:25:18.594Z,12.40
2019-02-21T11:27:51.452Z,12.20
2019-02-21T11:30:24.182Z,12.20
2019-02-21T11:32:57.011Z,12.30
2019-02-21T11:35:29.413Z,12.80
2019-02-21T11:38:01.915Z,13.10
2019-02-21T11:40:45.093Z,13.00
2019-02-21T11:43:13.574Z,12.80
2019-02-21T11:45:55.072Z,12.70
2019-02-21T11:48:20.011Z,12.60
2019-02-21T11:50:51.545Z,12.40
2019-02-21T11:53:23.348Z,12.20
2019-02-21T11:55:54.909Z,12.10
2019-02-21T11:58:27.986Z,12.10
2019-02-21T12:00:59.833Z,12.30
2019-02-21T12:03:31.865Z,12.70
2019-02-21T12:06:06.182Z,13.10
2019-02-21T12:08:38.295Z,13.20
2019-02-21T12:11:10.094Z,13.30
2019-02-21T12:13:42.697Z,13.80
2019-02-21T12:16:14.262Z,14.00
2019-02-21T12:18:46.318Z,14.20
2019-02-21T12:21:17.882Z,14.20
2019-02-21T12:23:49.154Z,14.50
2019-02-21T12:26:23.387Z,14.40
2019-02-21T12:28:56.297Z,14.40
2019-02-21T12:31:29.112Z,14.50
2019-02-21T12:34:01.074Z,14.50
2019-02-21T12:36:33.755Z,14.60
2019-02-21T12:39:06.913Z,14.50
2019-02-21T12:41:39.237Z,14.70
2019-02-21T12:44:12.374Z,14.70
2019-02-21T12:46:45.689Z,14.50
2019-02-21T12:49:18.514Z,14.20
2019-02-21T12:51:51.053Z,13.90
2019-02-21T12:54:24.784Z,13.70
2019-02-21T12:56:57.775Z,13.60
2019-02-21T12:59:29.795Z,13.40
2019-02-21T13:02:02.514Z,13.20
2019-02-21T13:04:35.458Z,12.90
2019-02-21T13:07:08.593Z,12.60
2019-02-21T13:09:40.733Z,12.20
2019-02-21T13:12:13.915Z,12.10
2019-02-21T13:14:47.393Z,12.00
2019-02-21T13:17:20.474Z,12.10
2019-02-21T13:19:52.675Z,12.10
2019-02-21T13:22:25.192Z,12.00
2019-02-21T13:24:59.615Z,11.90
2019-02-21T13:27:32.336Z,11.80
2019-02-21T13:30:05.737Z,11.80
2019-02-21T13:32:37.134Z,11.90
2019-02-21T13:35:10.053Z,12.00
2019-02-21T13:37:42.594Z,12.00
2019-02-21T13:40:15.536Z,12.00
2019-02-21T13:42:48.379Z,12.00
2019-02-21T13:45:21.493Z,12.10
2019-02-21T13:47:53.721Z,12.10
2019-02-21T13:50:26.759Z,12.10
2019-02-21T13:52:59.180Z,12.20
2019-02-21T13:55:32.785Z,12.20
2019-02-21T13:58:05.319Z,12.20
2019-02-21T14:00:37.379Z,12.20
2019-02-21T14:03:10.500Z,12.20
2019-02-21T14:05:43.020Z,12.20
2019-02-21T14:08:15.559Z,12.20
2019-02-21T14:10:48.679Z,12.20
2019-02-21T14:13:20.447Z,12.20
2019-02-21T14:15:53.358Z,12.20
2019-02-21T14:18:26.159Z,12.20
2019-02-21T14:20:59.279Z,12.20
2019-02-21T14:23:32.039Z,12.20
2019-02-21T14:26:04.899Z,12.20
2019-02-21T14:28:38.062Z,12.20
2019-02-21T14:31:11.081Z,12.10
2019-02-21T14:33:43.898Z,12.00
2019-02-21T14:36:19.073Z,12.00
2019-02-21T14:38:50.102Z,11.90
2019-02-21T14:41:22.860Z,11.90
2019-02-21T14:43:55.779Z,11.80
2019-02-21T14:46:28.235Z,11.70
2019-02-21T14:48:59.633Z,11.80
2019-02-21T14:51:32.261Z,11.80
2019-02-21T14:54:05.346Z,11.70
2019-02-21T14:56:41.093Z,11.70
2019-02-21T14:59:13.974Z,11.70
2019-02-21T15:01:47.453Z,11.70
2019-02-21T15:04:19.733Z,11.70
2019-02-21T15:06:52.553Z,11.70
2019-02-21T15:09:25.272Z,11.70
2019-02-21T15:11:57.972Z,11.70
2019-02-21T15:14:31.033Z,11.70
2019-02-21T15:17:03.958Z,11.70
2019-02-21T15:19:36.716Z,11.70
2019-02-21T15:22:09.015Z,11.70
2019-02-21T15:24:41.732Z,11.80
2019-02-21T15:27:14.209Z,11.80
2019-02-21T15:29:47.268Z,11.90
2019-02-21T15:32:19.588Z,12.00
2019-02-21T15:34:52.548Z,12.10
2019-02-21T15:37:26.045Z,12.00
2019-02-21T15:39:59.146Z,12.00
2019-02-21T15:42:31.443Z,12.00
2019-02-21T15:45:03.647Z,11.90
2019-02-21T15:47:35.827Z,11.90
2019-02-21T15:50:10.272Z,11.80
2019-02-21T15:52:43.019Z,11.80
2019-02-21T15:55:16.194Z,11.80
2019-02-21T15:57:48.671Z,11.90
2019-02-21T16:00:21.807Z,12.00
2019-02-21T16:02:54.607Z,12.00
2019-02-21T16:05:26.850Z,12.10
2019-02-21T16:07:59.017Z,12.10
2019-02-21T16:10:30.963Z,12.10
2019-02-21T16:13:05.020Z,12.00
2019-02-21T16:15:37.818Z,12.00
2019-02-21T16:18:09.817Z,12.10
2019-02-21T16:20:41.621Z,12.10
2019-02-21T16:23:14.446Z,12.20
2019-02-21T16:25:47.258Z,12.20
2019-02-21T16:28:19.896Z,12.20
2019-02-21T16:30:52.155Z,12.30
2019-02-21T16:33:25.635Z,12.40
2019-02-21T16:35:58.879Z,12.40
2019-02-21T16:38:31.115Z,12.30
2019-02-21T16:41:03.797Z,12.30
2019-02-21T16:43:36.995Z,12.20
2019-02-21T16:46:11.015Z,12.20
2019-02-21T16:48:44.075Z,12.10
2019-02-21T16:51:16.738Z,12.00
2019-02-21T16:53:49.283Z,11.90
2019-02-21T16:56:22.059Z,11.90
2019-02-21T16:58:54.057Z,11.80
2019-02-21T17:01:26.204Z,11.80
2019-02-21T17:03:59.221Z,11.70
2019-02-21T17:06:31.715Z,11.70
2019-02-21T17:09:05.375Z,11.60
2019-02-21T17:11:38.159Z,11.50
2019-02-21T17:14:11.179Z,11.50
2019-02-21T17:16:43.696Z,11.40
2019-02-21T17:19:15.838Z,11.40
2019-02-21T17:21:49.075Z,11.30
2019-02-21T17:24:22.395Z,11.30
2019-02-21T17:26:55.535Z,11.30
2019-02-21T17:29:28.197Z,11.30
2019-02-21T17:32:00.615Z,11.20
2019-02-21T17:34:33.335Z,11.30
2019-02-21T17:37:05.618Z,11.30
2019-02-21T17:39:38.318Z,11.20
2019-02-21T17:42:11.196Z,11.20
2019-02-21T17:44:44.352Z,11.10
2019-02-21T17:47:16.777Z,11.20
2019-02-21T17:49:49.478Z,11.20
2019-02-21T17:52:21.876Z,11.20
2019-02-21T17:54:54.919Z,11.20
2019-02-21T17:57:27.115Z,11.30
2019-02-21T18:00:00.455Z,11.20
2019-02-21T18:02:33.477Z,11.10
2019-02-21T18:05:07.221Z,11.10
2019-02-21T18:07:40.777Z,10.90
2019-02-21T18:10:15.151Z,10.80
2019-02-21T18:12:48.095Z,10.80
2019-02-21T18:15:21.256Z,10.80
2019-02-21T18:17:53.636Z,10.80
2019-02-21T18:20:26.195Z,10.80
2019-02-21T18:22:58.416Z,10.80
2019-02-21T18:25:36.535Z,10.80
2019-02-21T18:28:09.454Z,10.80
2019-02-21T18:30:42.796Z,10.80
2019-02-21T18:33:15.734Z,10.90
2019-02-21T18:35:48.598Z,10.90
2019-02-21T18:38:21.594Z,10.90
2019-02-21T18:40:55.137Z,10.90
2019-02-21T18:43:27.454Z,10.90
2019-02-21T18:45:59.717Z,10.90
2019-02-21T18:48:32.356Z,10.90
2019-02-21T18:51:04.895Z,10.90
2019-02-21T18:53:37.756Z,10.90
2019-02-21T18:56:10.936Z,10.90
2019-02-21T18:58:43.717Z,10.80
2019-02-21T19:01:15.956Z,10.80
2019-02-21T19:03:48.455Z,10.80
2019-02-21T19:06:21.636Z,10.70
2019-02-21T19:08:55.017Z,10.80
2019-02-21T19:11:28.677Z,10.80
2019-02-21T19:14:01.161Z,10.70
2019-02-21T19:16:33.935Z,10.70
2019-02-21T19:19:06.894Z,10.60
2019-02-21T19:21:40.135Z,10.60
2019-02-21T19:24:13.597Z,10.50
2019-02-21T19:26:45.735Z,10.50
2019-02-21T19:29:18.815Z,10.40
2019-02-21T19:31:52.296Z,10.40
2019-02-21T19:34:25.456Z,10.40
2019-02-21T19:36:57.995Z,10.30
2019-02-21T19:39:31.135Z,10.30
2019-02-21T19:42:03.675Z,10.20
2019-02-21T19:44:36.223Z,10.20
2019-02-21T19:47:08.615Z,10.10
2019-02-21T19:49:41.137Z,10.10
2019-02-21T19:52:14.436Z,10.10
2019-02-21T19:54:46.493Z,10.00
2019-02-21T19:57:19.115Z,10.10
2019-02-21T19:59:52.200Z,10.00
2019-02-21T20:02:25.554Z,10.00
2019-02-21T20:04:57.837Z,9.90
2019-02-21T20:07:30.936Z,9.90
2019-02-21T20:10:04.696Z,9.90
2019-02-21T20:12:37.563Z,9.90
2019-02-21T20:15:10.996Z,9.90
2019-02-21T20:17:44.686Z,9.90
2019-02-21T20:20:19.099Z,9.90
2019-02-21T20:22:51.856Z,9.90
2019-02-21T20:25:25.416Z,9.80
2019-02-21T20:27:57.696Z,9.80
2019-02-21T20:30:30.555Z,9.70
2019-02-21T20:33:03.395Z,9.70
2019-02-21T20:35:36.495Z,9.70
2019-02-21T20:38:08.795Z,9.60
2019-02-21T20:40:41.896Z,9.60
2019-02-21T20:43:14.223Z,9.70
2019-02-21T20:45:52.920Z,9.70
2019-02-21T20:48:20.895Z,9.70
2019-02-21T20:50:56.865Z,9.70
2019-02-21T20:53:27.103Z,9.70
2019-02-21T20:55:59.987Z,9.60
2019-02-21T20:58:32.538Z,9.70
2019-02-21T21:01:07.196Z,9.70
2019-02-21T21:03:40.035Z,9.70
2019-02-21T21:06:12.276Z,9.70
2019-02-21T21:08:46.566Z,9.70
2019-02-21T21:11:18.056Z,9.70
2019-02-21T21:13:50.696Z,9.70
2019-02-21T21:16:24.116Z,9.70
2019-02-21T21:18:56.940Z,9.80
2019-02-21T21:21:29.015Z,9.80
2019-02-21T21:24:02.237Z,9.80
2019-02-21T21:26:34.675Z,9.80
2019-02-21T21:29:08.017Z,9.80
2019-02-21T21:31:40.295Z,9.90
2019-02-21T21:34:13.234Z,9.90
2019-02-21T21:36:46.056Z,10.00
2019-02-21T21:39:18.656Z,10.00
2019-02-21T21:41:51.406Z,9.90
2019-02-21T21:44:24.255Z,9.90
2019-02-21T21:46:56.820Z,9.90
2019-02-21T21:49:29.575Z,10.00
2019-02-21T21:52:02.098Z,10.00
2019-02-21T21:54:35.238Z,10.00
2019-02-21T21:57:07.495Z,10.10
2019-02-21T21:59:39.936Z,10.10
2019-02-21T22:02:12.815Z,10.10
2019-02-21T22:04:45.395Z,10.10
2019-02-21T22:07:18.456Z,10.10
2019-02-21T22:09:51.175Z,10.10
2019-02-21T22:12:24.418Z,10.10
2019-02-21T22:14:57.494Z,10.10
2019-02-21T22:17:30.015Z,10.10
2019-02-21T22:20:02.971Z,10.10
2019-02-21T22:22:35.499Z,10.20
2019-02-21T22:25:08.535Z,10.30
2019-02-21T22:27:40.756Z,10.40
2019-02-21T22:30:15.015Z,10.50
2019-02-21T22:32:48.023Z,10.50
2019-02-21T22:35:19.937Z,10.50
2019-02-21T22:37:52.995Z,10.50
2019-02-21T22:40:25.177Z,10.50
2019-02-21T22:42:57.516Z,10.60
2019-02-21T22:45:29.634Z,10.60
2019-02-21T22:48:02.435Z,10.50
2019-02-21T22:50:35.635Z,10.50
2019-02-21T22:53:08.615Z,10.50
2019-02-21T22:55:42.775Z,10.40
2019-02-21T22:58:15.655Z,10.40
2019-02-21T23:01:18.115Z,10.30
2019-02-21T23:03:53.795Z,10.20
2019-02-21T23:06:57.395Z,10.20
2019-02-21T23:09:29.517Z,10.10
2019-02-21T23:12:02.616Z,10.10
2019-02-21T23:14:36.297Z,10.00
2019-02-21T23:17:08.715Z,9.90
2019-02-21T23:19:42.822Z,9.90
2019-02-21T23:22:15.121Z,9.90
2019-02-21T23:24:47.223Z,9.80
2019-02-21T23:27:20.823Z,9.70
2019-02-21T23:29:53.382Z,9.70
2019-02-21T23:32:26.122Z,9.60
2019-02-21T23:35:00.316Z,9.70
2019-02-21T23:37:32.763Z,9.70
2019-02-21T23:40:06.084Z,9.70
2019-02-21T23:42:39.204Z,9.70
2019-02-21T23:45:12.465Z,9.60
2019-02-21T23:47:49.757Z,9.60
2019-02-21T23:50:19.126Z,9.70
2019-02-21T23:52:50.981Z,9.60
2019-02-21T23:55:23.802Z,9.70
2019-02-21T23:57:56.882Z,9.70
